Terminal Aerodrome Forecast
Issued by NWS

Home | Current Version | Previous Version | Text Only | Print | Product List | Glossary On
Versions: 1 2 3 4 5 6 7 8 9 10 11 12 13 14 15 16 17 18 19 20 21
000
FTUS41 KBGM 031739
TAFELM
TAF
KELM 031739Z 0318/0418 34004KT P6SM SCT025 BKN040
     FM032100 02004KT P6SM BKN045
     FM040000 VRB03KT P6SM SCT045 SCT250
     FM040300 VRB02KT 3SM BR SCT250
     FM040600 VRB02KT 1/2SM FG VV002
     FM041400 07003KT P6SM SCT045 SCT250=

USA.gov is the U.S. government's official web portal to all federal, state and local government web resources and services.